Time;durP1;ratioP1;P1;durP2;ratioP2;P2;SDS_P1;SDS_P2;PMS_P1;PMS_P2;Temp;Humidity;BMP_temperature;BMP_pressure;BME280_temperature;BME280_humidity;BME280_pressure;Samples;Min_cycle;Max_cycle;Signal;HPM_P1;HPM_P2
2021/08/31 00:00:00;;;;;;;;;;;;;;;18.47;100.00;99580.66;5019124;28;20059;-78
2021/08/31 00:02:25;;;;;;;;;;;;;;;18.98;100.00;99583.09;5006072;28;19913;-78
2021/08/31 00:04:51;;;;;;;;;;;;;;;18.91;100.00;99579.16;5003320;28;19929;-78
2021/08/31 00:07:16;;;;;;;;;;;;;;;18.65;100.00;99578.81;5005595;28;20016;-78
2021/08/31 00:09:42;;;;;;;;;;;;;;;18.21;100.00;99584.72;5003038;28;19972;-78
2021/08/31 00:12:07;;;;;;;;;;;;;;;18.06;100.00;99590.75;5002981;28;20404;-78
2021/08/31 00:14:36;;;;;;;;;;;;;;;17.93;100.00;99591.41;5002984;28;20300;-78
2021/08/31 00:17:01;;;;;;;;;;;;;;;17.72;100.00;99592.47;5013006;28;19944;-77
2021/08/31 00:19:27;;;;;;;;;;;;;;;17.70;100.00;99597.78;5003376;28;19921;-78
2021/08/31 00:21:52;;;;;;;;;;;;;;;17.71;100.00;99590.81;5005561;28;20396;-78
2021/08/31 00:24:17;;;;;;;;;;;;;;;17.85;100.00;99593.56;5011339;28;19925;-78
2021/08/31 00:26:43;;;;;;;;;;;;;;;17.64;100.00;99599.88;5002208;28;19972;-78
2021/08/31 00:29:08;;;;;;;;;;;;;;;18.15;100.00;99591.13;5000734;28;19953;-78
2021/08/31 00:31:33;;;;;;;;;;;;;;;17.25;100.00;99594.00;4999446;28;19921;-78
2021/08/31 00:33:59;;;;;;;;;;;;;;;17.21;100.00;99596.84;5009204;28;19928;-77
2021/08/31 00:36:24;;;;;;;;;;;;;;;17.10;100.00;99607.78;5007672;28;19913;-78
2021/08/31 00:38:50;;;;;;;;;;;;;;;16.80;100.00;99604.91;5002503;28;19925;-78
2021/08/31 00:41:15;;;;;;;;;;;;;;;16.91;100.00;99608.66;5001512;28;19917;-78
2021/08/31 00:43:47;;;;;;;;;;;;;;;16.83;100.00;99612.53;5002911;28;19918;-78
2021/08/31 00:46:13;;;;;;;;;;;;;;;16.39;100.00;99610.25;5007191;28;19975;-78
2021/08/31 00:48:40;;;;;;;;;;;;;;;16.75;100.00;99609.47;5001015;28;19922;-78
2021/08/31 00:51:05;;;;;;;;;;;;;;;16.34;100.00;99609.63;5001334;28;20220;-78
2021/08/31 00:53:30;;;;;;;;;;;;;;;16.53;100.00;99618.25;5001993;28;19936;-78
2021/08/31 00:55:55;;;;;;;;;;;;;;;16.45;100.00;99618.63;5007760;28;19917;-78
2021/08/31 00:58:21;;;;;;;;;;;;;;;16.47;100.00;99621.16;5006544;28;19918;-78
2021/08/31 01:00:46;;;;;;;;;;;;;;;17.00;100.00;99623.00;5001404;28;19929;-78
2021/08/31 01:03:12;;;;;;;;;;;;;;;16.85;100.00;99618.53;5000175;28;20017;-78
2021/08/31 01:05:37;;;;;;;;;;;;;;;17.14;100.00;99622.31;5000634;28;19921;-78
2021/08/31 01:08:02;;;;;;;;;;;;;;;17.43;100.00;99617.44;4999356;28;19913;-77
2021/08/31 01:10:28;;;;;;;;;;;;;;;16.94;100.00;99615.47;5001755;28;19935;-78
2021/08/31 01:12:54;;;;;;;;;;;;;;;17.17;100.00;99616.13;5001844;28;19920;-78
2021/08/31 01:15:19;;;;;;;;;;;;;;;17.32;100.00;99604.94;5003827;28;20008;-78
2021/08/31 01:17:46;;;;;;;;;;;;;;;16.73;100.00;99612.97;4998787;28;20290;-78
2021/08/31 01:20:12;;;;;;;;;;;;;;;17.10;100.00;99606.00;4997679;28;19926;-78
2021/08/31 01:22:37;;;;;;;;;;;;;;;16.88;100.00;99610.59;5001589;28;19918;-78
2021/08/31 01:25:03;;;;;;;;;;;;;;;16.60;100.00;99609.25;4995744;28;19913;-78
2021/08/31 01:27:28;;;;;;;;;;;;;;;16.22;100.00;99616.25;5017395;28;20532;-78
2021/08/31 01:29:57;;;;;;;;;;;;;;;15.86;100.00;99616.97;5000670;28;19918;-79
2021/08/31 01:32:22;;;;;;;;;;;;;;;15.77;100.00;99625.16;5007623;28;19921;-78
2021/08/31 01:34:48;;;;;;;;;;;;;;;15.44;100.00;99634.28;4998430;28;19917;-78
2021/08/31 01:37:13;;;;;;;;;;;;;;;15.60;100.00;99644.00;5000265;28;20000;-78
2021/08/31 01:39:39;;;;;;;;;;;;;;;15.69;100.00;99643.59;4999682;28;19918;-78
2021/08/31 01:42:04;;;;;;;;;;;;;;;15.88;100.00;99641.94;5003865;28;19922;-77
2021/08/31 01:44:30;;;;;;;;;;;;;;;15.67;100.00;99651.50;5000439;28;20036;-77
2021/08/31 01:46:55;;;;;;;;;;;;;;;16.04;100.00;99641.28;5001553;28;19917;-77
2021/08/31 01:49:21;;;;;;;;;;;;;;;15.75;100.00;99635.59;5001581;28;20369;-78
2021/08/31 01:51:46;;;;;;;;;;;;;;;15.55;100.00;99645.97;5015782;28;19917;-78
2021/08/31 01:54:12;;;;;;;;;;;;;;;15.65;100.00;99639.47;4998718;28;20013;-77
2021/08/31 01:56:39;;;;;;;;;;;;;;;15.64;100.00;99640.38;5012881;28;19913;-78
2021/08/31 01:59:04;;;;;;;;;;;;;;;15.42;100.00;99643.06;5000383;28;20533;-78
2021/08/31 02:01:29;;;;;;;;;;;;;;;15.26;100.00;99642.84;4998610;28;19965;-78
2021/08/31 02:03:55;;;;;;;;;;;;;;;15.16;100.00;99650.13;5011836;28;20008;-78
2021/08/31 02:06:20;;;;;;;;;;;;;;;15.36;100.00;99654.50;5004391;28;19921;-78
2021/08/31 02:08:46;;;;;;;;;;;;;;;15.29;100.00;99650.47;5000787;28;20045;-78
2021/08/31 02:11:11;;;;;;;;;;;;;;;15.59;100.00;99652.72;5015245;28;19929;-78
2021/08/31 02:13:36;;;;;;;;;;;;;;;15.51;100.00;99644.38;4997582;28;19949;-78
2021/08/31 02:16:02;;;;;;;;;;;;;;;15.77;100.00;99646.75;5000103;28;19914;-78
2021/08/31 02:18:27;;;;;;;;;;;;;;;15.84;100.00;99630.00;4997936;28;20012;-78
2021/08/31 02:20:53;;;;;;;;;;;;;;;15.27;100.00;99636.72;5000237;28;20424;-78
2021/08/31 02:23:18;;;;;;;;;;;;;;;15.19;100.00;99642.25;5006369;28;20444;-78
2021/08/31 02:25:43;;;;;;;;;;;;;;;15.00;100.00;99649.91;5002331;28;19936;-78
2021/08/31 02:28:08;;;;;;;;;;;;;;;15.06;100.00;99654.00;4999814;28;20413;-78
2021/08/31 02:30:34;;;;;;;;;;;;;;;15.34;100.00;99650.28;5016055;28;19924;-78
2021/08/31 02:33:03;;;;;;;;;;;;;;;14.83;100.00;99652.31;5000008;28;19918;-78
2021/08/31 02:35:29;;;;;;;;;;;;;;;15.18;100.00;99652.66;4999691;28;19988;-78
2021/08/31 02:37:55;;;;;;;;;;;;;;;15.44;100.00;99654.19;4998869;28;20313;-78
2021/08/31 02:40:20;;;;;;;;;;;;;;;15.18;100.00;99652.66;5001604;28;19924;-78
2021/08/31 02:42:46;;;;;;;;;;;;;;;15.23;100.00;99655.91;4999815;28;19964;-79
2021/08/31 02:45:11;;;;;;;;;;;;;;;15.61;100.00;99650.91;5015352;28;19917;-77
2021/08/31 02:47:36;;;;;;;;;;;;;;;15.39;100.00;99656.97;4997038;28;19918;-77
2021/08/31 02:50:02;;;;;;;;;;;;;;;15.43;100.00;99653.34;4998382;28;19972;-78
2021/08/31 02:52:27;;;;;;;;;;;;;;;15.16;100.00;99657.91;4998911;28;19922;-78
2021/08/31 02:54:53;;;;;;;;;;;;;;;15.37;100.00;99669.19;4995767;28;19958;-78
2021/08/31 02:57:18;;;;;;;;;;;;;;;15.15;100.00;99679.59;4999767;28;20391;-78
2021/08/31 02:59:43;;;;;;;;;;;;;;;15.53;100.00;99673.72;4999296;28;19926;-78
2021/08/31 03:02:09;;;;;;;;;;;;;;;15.88;100.00;99660.13;5016105;28;20507;-78
2021/08/31 03:04:39;;;;;;;;;;;;;;;16.40;100.00;99640.53;4998929;28;19921;-78
2021/08/31 03:07:05;;;;;;;;;;;;;;;16.55;100.00;99629.44;4978948;28;19913;-78
2021/08/31 03:09:30;;;;;;;;;;;;;;;16.55;100.00;99633.78;4996898;28;19918;-78
2021/08/31 03:11:56;;;;;;;;;;;;;;;16.77;100.00;99637.06;4999305;28;20362;-78
2021/08/31 03:14:22;;;;;;;;;;;;;;;16.73;100.00;99651.13;5012602;28;19921;-78
2021/08/31 03:16:48;;;;;;;;;;;;;;;16.70;100.00;99652.13;5014370;28;19924;-77
2021/08/31 03:19:14;;;;;;;;;;;;;;;16.72;100.00;99647.69;5001064;28;19917;-78
2021/08/31 03:21:39;;;;;;;;;;;;;;;16.83;100.00;99648.97;4996477;28;19921;-78
2021/08/31 03:24:04;;;;;;;;;;;;;;;16.87;100.00;99650.50;4998404;28;19953;-78
2021/08/31 03:26:30;;;;;;;;;;;;;;;16.80;100.00;99649.13;4998076;28;19918;-78
2021/08/31 03:28:55;;;;;;;;;;;;;;;16.84;100.00;99643.69;5001063;28;20456;-78
2021/08/31 03:31:20;;;;;;;;;;;;;;;16.91;100.00;99644.25;5000677;28;19923;-78
2021/08/31 03:33:46;;;;;;;;;;;;;;;17.18;100.00;99644.69;5000140;28;20147;-78
2021/08/31 03:36:11;;;;;;;;;;;;;;;17.17;100.00;99644.75;4998174;28;19955;-79
2021/08/31 03:38:36;;;;;;;;;;;;;;;17.19;100.00;99651.56;5012669;28;21132;-78
2021/08/31 03:41:02;;;;;;;;;;;;;;;17.07;100.00;99647.78;5009136;28;19917;-79
2021/08/31 03:43:27;;;;;;;;;;;;;;;16.85;100.00;99649.75;4998878;28;19914;-78
2021/08/31 03:45:52;;;;;;;;;;;;;;;16.69;100.00;99644.38;5004884;28;19921;-78
2021/08/31 03:48:18;;;;;;;;;;;;;;;16.96;100.00;99637.06;5016566;28;19917;-78
2021/08/31 03:50:43;;;;;;;;;;;;;;;16.94;100.00;99641.50;5001237;28;19944;-78
2021/08/31 03:53:08;;;;;;;;;;;;;;;16.95;100.00;99644.97;5001110;28;19941;-79
2021/08/31 03:55:34;;;;;;;;;;;;;;;16.91;100.00;99642.50;4992076;28;19913;-79
2021/08/31 03:57:59;;;;;;;;;;;;;;;16.86;100.00;99648.84;5011399;28;20019;-79
2021/08/31 04:00:24;;;;;;;;;;;;;;;16.42;100.00;99644.78;5007264;28;19913;-78
2021/08/31 04:02:50;;;;;;;;;;;;;;;16.61;100.00;99647.34;5004798;28;20405;-79
2021/08/31 04:05:15;;;;;;;;;;;;;;;16.86;100.00;99649.69;5003335;28;19920;-79
2021/08/31 04:07:40;;;;;;;;;;;;;;;16.88;100.00;99649.63;5005422;28;20347;-79
2021/08/31 04:10:06;;;;;;;;;;;;;;;16.99;100.00;99664.69;5013495;28;19965;-79
2021/08/31 04:12:31;;;;;;;;;;;;;;;16.99;100.00;99655.16;5026362;28;20373;-79
2021/08/31 04:14:56;;;;;;;;;;;;;;;16.92;100.00;99664.13;5004764;28;19917;-79
2021/08/31 04:17:22;;;;;;;;;;;;;;;17.00;100.00;99667.22;5010825;28;19962;-79
2021/08/31 04:19:47;;;;;;;;;;;;;;;16.96;100.00;99659.66;5020641;28;19971;-79
2021/08/31 04:22:12;;;;;;;;;;;;;;;16.94;100.00;99659.72;5014432;28;19920;-79
2021/08/31 04:24:38;;;;;;;;;;;;;;;16.99;100.00;99659.50;5022002;28;20401;-79
2021/08/31 04:27:04;;;;;;;;;;;;;;;17.07;100.00;99660.81;5005926;28;19914;-79
2021/08/31 04:29:29;;;;;;;;;;;;;;;16.85;100.00;99652.34;5004137;28;19949;-79
2021/08/31 04:31:54;;;;;;;;;;;;;;;16.94;100.00;99654.50;5000896;28;19928;-79
2021/08/31 04:34:19;;;;;;;;;;;;;;;16.72;100.00;99652.91;4999374;28;19914;-79
2021/08/31 04:36:45;;;;;;;;;;;;;;;16.56;100.00;99656.25;5002881;28;20433;-79
2021/08/31 04:39:10;;;;;;;;;;;;;;;16.72;100.00;99658.09;5009179;28;19937;-80
2021/08/31 04:41:35;;;;;;;;;;;;;;;16.83;100.00;99651.56;5016456;28;20005;-79
2021/08/31 04:44:01;;;;;;;;;;;;;;;17.09;100.00;99660.75;5006071;28;19975;-79
2021/08/31 04:46:26;;;;;;;;;;;;;;;16.73;100.00;99659.78;5008683;28;19952;-79
2021/08/31 04:48:51;;;;;;;;;;;;;;;16.51;100.00;99661.69;4997961;28;19918;-79
2021/08/31 04:51:17;;;;;;;;;;;;;;;16.58;100.00;99657.91;4994038;28;20004;-79
2021/08/31 04:53:42;;;;;;;;;;;;;;;16.51;100.00;99661.69;4995266;28;19921;-80
2021/08/31 04:56:07;;;;;;;;;;;;;;;16.50;100.00;99668.63;4996182;28;20362;-81
2021/08/31 04:58:33;;;;;;;;;;;;;;;16.50;100.00;99670.41;4992600;28;19922;-79
2021/08/31 05:00:59;;;;;;;;;;;;;;;16.53;100.00;99667.66;4991155;28;20011;-80
2021/08/31 05:03:28;;;;;;;;;;;;;;;16.48;100.00;99669.63;4993493;28;19914;-80
2021/08/31 05:06:00;;;;;;;;;;;;;;;16.61;100.00;99675.97;4999681;28;20328;-80
2021/08/31 05:08:25;;;;;;;;;;;;;;;16.67;100.00;99669.63;4995049;28;19913;-79
2021/08/31 05:10:56;;;;;;;;;;;;;;;16.82;100.00;99668.09;5000342;28;19921;-79
2021/08/31 05:13:21;;;;;;;;;;;;;;;16.42;100.00;99681.16;5006193;28;19921;-78
2021/08/31 05:15:47;;;;;;;;;;;;;;;16.64;100.00;99681.00;5010270;28;19921;-79
2021/08/31 05:18:14;;;;;;;;;;;;;;;16.83;100.00;99669.78;4997786;28;20013;-79
2021/08/31 05:20:39;;;;;;;;;;;;;;;16.72;100.00;99668.50;4996410;28;20368;-79
2021/08/31 05:23:06;;;;;;;;;;;;;;;16.71;100.00;99687.59;4996403;28;19920;-79
2021/08/31 05:25:32;;;;;;;;;;;;;;;16.75;100.00;99690.09;5004969;28;19920;-78
2021/08/31 05:27:57;;;;;;;;;;;;;;;17.03;100.00;99690.50;4998962;28;20399;-79
2021/08/31 05:30:22;;;;;;;;;;;;;;;17.12;100.00;99691.81;4998975;28;19924;-78
2021/08/31 05:32:47;;;;;;;;;;;;;;;17.31;100.00;99694.38;4999113;28;20289;-78
2021/08/31 05:35:13;;;;;;;;;;;;;;;16.62;100.00;99708.84;5013444;28;20916;-79
2021/08/31 05:37:38;;;;;;;;;;;;;;;16.63;100.00;99715.75;5000866;28;19914;-78
2021/08/31 05:40:05;;;;;;;;;;;;;;;16.46;100.00;99728.66;4999562;28;20465;-79
2021/08/31 05:42:30;;;;;;;;;;;;;;;15.40;100.00;99744.31;4976469;28;20424;-78
2021/08/31 05:44:55;;;;;;;;;;;;;;;15.87;100.00;99745.91;4998096;28;19922;-78
2021/08/31 05:47:21;;;;;;;;;;;;;;;15.62;100.00;99751.22;4999515;28;19952;-79
2021/08/31 05:49:46;;;;;;;;;;;;;;;16.37;100.00;99736.84;4996331;28;19918;-79
2021/08/31 05:52:12;;;;;;;;;;;;;;;15.99;100.00;99745.41;4995250;28;19913;-78
2021/08/31 05:54:37;;;;;;;;;;;;;;;16.38;100.00;99746.38;4995377;28;19929;-78
2021/08/31 05:57:09;;;;;;;;;;;;;;;16.59;100.00;99736.75;5018886;28;19918;-78
2021/08/31 05:59:34;;;;;;;;;;;;;;;16.63;100.00;99738.31;5000732;28;19944;-78
2021/08/31 06:02:00;;;;;;;;;;;;;;;16.73;100.00;99743.00;4998460;28;20707;-79
2021/08/31 06:04:25;;;;;;;;;;;;;;;16.26;100.00;99738.19;4997462;28;20285;-78
2021/08/31 06:06:51;;;;;;;;;;;;;;;16.02;100.00;99749.63;4998137;28;19918;-79
2021/08/31 06:09:16;;;;;;;;;;;;;;;16.72;100.00;99745.69;4998818;28;20311;-77
2021/08/31 06:11:41;;;;;;;;;;;;;;;15.87;100.00;99766.69;4996693;28;19964;-78
2021/08/31 06:14:08;;;;;;;;;;;;;;;15.89;100.00;99776.09;4999721;28;19922;-79
2021/08/31 06:16:34;;;;;;;;;;;;;;;15.66;100.00;99789.16;4997258;28;19922;-78
2021/08/31 06:18:59;;;;;;;;;;;;;;;16.11;100.00;99788.22;5000293;28;19921;-78
2021/08/31 06:21:25;;;;;;;;;;;;;;;15.75;100.00;99794.00;4998236;28;19913;-77
2021/08/31 06:23:50;;;;;;;;;;;;;;;15.37;100.00;99798.97;4999742;28;19917;-79
2021/08/31 06:26:16;;;;;;;;;;;;;;;15.39;100.00;99802.31;4996703;28;19924;-79
2021/08/31 06:28:41;;;;;;;;;;;;;;;15.72;100.00;99804.53;4996971;28;19918;-78
2021/08/31 06:31:06;;;;;;;;;;;;;;;15.96;100.00;99807.03;4998519;28;20454;-79
2021/08/31 06:33:32;;;;;;;;;;;;;;;15.78;100.00;99804.28;4999721;28;19917;-79
2021/08/31 06:35:57;;;;;;;;;;;;;;;15.64;100.00;99816.94;5000167;28;20468;-78
2021/08/31 06:38:22;;;;;;;;;;;;;;;15.24;100.00;99813.31;5017406;28;19922;-79
2021/08/31 06:40:49;;;;;;;;;;;;;;;15.26;100.00;99833.09;4997617;28;19960;-79
2021/08/31 06:43:14;;;;;;;;;;;;;;;15.42;100.00;99825.56;5007039;28;19913;-78
2021/08/31 06:45:39;;;;;;;;;;;;;;;15.32;100.00;99834.59;5005113;28;19924;-79
2021/08/31 06:48:05;;;;;;;;;;;;;;;15.62;100.00;99830.00;4999633;28;19913;-78
2021/08/31 06:50:30;;;;;;;;;;;;;;;15.43;100.00;99823.81;4999288;28;19956;-78
2021/08/31 06:52:57;;;;;;;;;;;;;;;15.47;100.00;99831.44;5013683;28;19921;-78
2021/08/31 06:55:22;;;;;;;;;;;;;;;15.46;100.00;99832.34;5001016;28;19925;-79
2021/08/31 06:57:47;;;;;;;;;;;;;;;15.35;100.00;99829.31;5017365;28;19917;-79
2021/08/31 07:00:13;;;;;;;;;;;;;;;15.55;100.00;99832.88;4997342;28;20289;-78
2021/08/31 07:02:38;;;;;;;;;;;;;;;15.57;100.00;99831.06;4998291;28;20044;-79
2021/08/31 07:05:04;;;;;;;;;;;;;;;15.61;100.00;99835.25;4979621;28;19973;-78
2021/08/31 07:07:29;;;;;;;;;;;;;;;15.75;100.00;99825.19;4997027;28;19918;-78
2021/08/31 07:09:55;;;;;;;;;;;;;;;15.54;100.00;99837.22;5009169;28;19913;-77
2021/08/31 07:12:21;;;;;;;;;;;;;;;15.22;100.00;99846.25;5000218;28;19948;-78
2021/08/31 07:14:47;;;;;;;;;;;;;;;15.19;100.00;99852.41;4998083;28;19917;-78
2021/08/31 07:17:13;;;;;;;;;;;;;;;15.32;100.00;99857.97;5000561;28;19914;-78
2021/08/31 07:19:38;;;;;;;;;;;;;;;15.25;100.00;99856.50;5001161;28;19996;-79
2021/08/31 07:22:04;;;;;;;;;;;;;;;15.37;100.00;99850.88;5019591;28;19924;-77
2021/08/31 07:24:29;;;;;;;;;;;;;;;15.31;100.00;99856.28;5018787;28;19918;-77
2021/08/31 07:26:55;;;;;;;;;;;;;;;15.51;100.00;99857.25;5000687;28;20063;-76
2021/08/31 07:29:20;;;;;;;;;;;;;;;15.40;100.00;99858.53;5017831;28;19928;-78
2021/08/31 07:31:45;;;;;;;;;;;;;;;15.77;100.00;99854.53;5004126;28;19925;-78
2021/08/31 07:34:11;;;;;;;;;;;;;;;15.55;100.00;99845.84;4999440;28;19918;-78
2021/08/31 07:36:36;;;;;;;;;;;;;;;15.53;100.00;99847.66;4998997;28;20108;-78
2021/08/31 07:39:01;;;;;;;;;;;;;;;15.68;100.00;99854.88;5002262;28;19917;-79
2021/08/31 07:41:27;;;;;;;;;;;;;;;15.59;100.00;99856.06;5003890;28;19925;-78
2021/08/31 07:43:53;;;;;;;;;;;;;;;15.57;100.00;99855.28;4998273;28;19925;-78
2021/08/31 07:46:19;;;;;;;;;;;;;;;15.39;100.00;99859.41;5001135;28;19925;-78
2021/08/31 07:48:44;;;;;;;;;;;;;;;15.16;100.00;99862.03;4997939;28;19929;-78
2021/08/31 07:51:10;;;;;;;;;;;;;;;15.35;100.00;99868.25;4998674;28;19920;-79
2021/08/31 07:53:35;;;;;;;;;;;;;;;15.30;100.00;99864.97;5001687;28;19929;-78
2021/08/31 07:56:01;;;;;;;;;;;;;;;15.35;100.00;99868.25;5000590;28;20088;-77
2021/08/31 07:58:26;;;;;;;;;;;;;;;15.26;100.00;99871.19;5004795;28;19925;-77
2021/08/31 08:00:52;;;;;;;;;;;;;;;15.56;100.00;99871.78;5015193;28;19925;-77
2021/08/31 08:03:17;;;;;;;;;;;;;;;15.54;100.00;99872.75;4999888;28;19976;-77
2021/08/31 08:05:42;;;;;;;;;;;;;;;15.35;100.00;99867.38;5016190;28;19925;-77
2021/08/31 08:08:08;;;;;;;;;;;;;;;15.71;100.00;99872.94;5001747;28;19928;-78
2021/08/31 08:10:33;;;;;;;;;;;;;;;16.01;100.00;99877.81;5006598;28;20385;-77
2021/08/31 08:12:58;;;;;;;;;;;;;;;15.65;100.00;99875.75;5002417;28;20005;-78
2021/08/31 08:15:23;;;;;;;;;;;;;;;15.61;100.00;99874.19;5002112;28;19914;-77
2021/08/31 08:17:49;;;;;;;;;;;;;;;15.41;100.00;99887.91;5002910;28;19914;-78
2021/08/31 08:20:15;;;;;;;;;;;;;;;15.59;100.00;99892.41;4996425;28;19926;-78
2021/08/31 08:22:40;;;;;;;;;;;;;;;15.42;100.00;99882.69;4994081;28;19924;-76
2021/08/31 08:25:06;;;;;;;;;;;;;;;15.51;100.00;99891.00;5010416;28;19928;-77
2021/08/31 08:27:31;;;;;;;;;;;;;;;15.21;100.00;99899.03;4998655;28;19921;-77
2021/08/31 08:29:57;;;;;;;;;;;;;;;15.14;100.00;99897.56;4991802;28;19922;-78
2021/08/31 08:32:22;;;;;;;;;;;;;;;15.60;100.00;99901.91;5009193;28;19914;-78
2021/08/31 08:34:47;;;;;;;;;;;;;;;15.84;100.00;99892.34;4996772;28;19924;-77
2021/08/31 08:37:13;;;;;;;;;;;;;;;16.08;100.00;99889.69;4995639;28;20289;-78
2021/08/31 08:39:38;;;;;;;;;;;;;;;15.89;100.00;99890.41;5009255;28;19918;-78
2021/08/31 08:42:08;;;;;;;;;;;;;;;15.74;100.00;99896.22;4994071;28;20476;-77
2021/08/31 08:44:34;;;;;;;;;;;;;;;15.69;100.00;99903.28;4994791;28;19922;-77
2021/08/31 08:46:59;;;;;;;;;;;;;;;15.87;100.00;99904.34;5000741;28;20377;-77
2021/08/31 08:49:25;;;;;;;;;;;;;;;15.74;100.00;99911.78;4992306;28;19968;-77
2021/08/31 08:51:52;;;;;;;;;;;;;;;15.84;100.00;99904.50;4993265;28;19918;-77
2021/08/31 08:54:17;;;;;;;;;;;;;;;15.91;100.00;99910.28;4990858;28;19979;-77
2021/08/31 08:56:43;;;;;;;;;;;;;;;15.68;100.00;99912.00;4991423;28;19918;-78
2021/08/31 08:59:08;;;;;;;;;;;;;;;16.27;100.00;99915.78;4974646;28;19933;-77
2021/08/31 09:01:41;;;;;;;;;;;;;;;16.06;100.00;99907.94;4990570;28;20313;-77
2021/08/31 09:04:07;;;;;;;;;;;;;;;16.79;100.00;99911.03;4993226;28;19952;-77
2021/08/31 09:06:32;;;;;;;;;;;;;;;17.01;100.00;99904.88;4975357;28;20015;-78
2021/08/31 09:08:58;;;;;;;;;;;;;;;16.56;100.00;99911.09;4992994;28;19968;-77
2021/08/31 09:11:25;;;;;;;;;;;;;;;16.92;100.00;99906.09;4991743;28;19926;-77
2021/08/31 09:13:51;;;;;;;;;;;;;;;16.84;100.00;99900.41;4987301;28;20278;-77
2021/08/31 09:16:21;;;;;;;;;;;;;;;16.95;100.00;99892.97;5007664;28;19928;-77
2021/08/31 09:18:50;;;;;;;;;;;;;;;16.67;100.00;99896.75;4991583;28;19925;-77
2021/08/31 09:21:20;;;;;;;;;;;;;;;17.30;100.00;99887.94;5005076;28;19914;-77
2021/08/31 09:23:45;;;;;;;;;;;;;;;17.82;100.00;99885.56;5000803;28;20384;-77
2021/08/31 09:26:13;;;;;;;;;;;;;;;17.21;100.00;99883.16;4992508;28;19942;-77
2021/08/31 09:28:39;;;;;;;;;;;;;;;17.76;100.00;99880.59;4989840;28;20017;-77
2021/08/31 09:31:09;;;;;;;;;;;;;;;17.96;100.00;99877.91;4967217;28;19914;-77
2021/08/31 09:33:36;;;;;;;;;;;;;;;17.92;100.00;99870.31;4993030;28;20029;-77
2021/08/31 09:36:28;;;;;;;;;;;;;;;17.59;100.00;99872.75;4992225;28;20041;-77
2021/08/31 09:38:58;;;;;;;;;;;;;;;18.75;100.00;99867.03;5007855;28;20027;-77
2021/08/31 09:41:28;;;;;;;;;;;;;;;18.82;100.00;99867.56;5001990;28;19917;-77
2021/08/31 09:43:53;;;;;;;;;;;;;;;17.91;100.00;99869.47;4991671;28;19944;-77
2021/08/31 09:46:18;;;;;;;;;;;;;;;17.87;100.00;99877.53;4991645;28;19991;-77
2021/08/31 09:48:44;;;;;;;;;;;;;;;17.08;100.00;99868.09;4990307;28;19918;-77
2021/08/31 09:51:13;;;;;;;;;;;;;;;17.37;100.00;99881.53;4993544;28;19917;-77
2021/08/31 09:53:38;;;;;;;;;;;;;;;17.13;100.00;99880.91;4990323;28;19917;-77
2021/08/31 09:56:10;;;;;;;;;;;;;;;16.76;100.00;99887.69;4999741;28;19924;-77
2021/08/31 09:58:37;;;;;;;;;;;;;;;17.17;100.00;99886.81;4989122;28;20407;-77
2021/08/31 10:01:02;;;;;;;;;;;;;;;17.08;100.00;99894.13;4990672;28;19918;-77
2021/08/31 10:03:28;;;;;;;;;;;;;;;17.49;100.00;99893.16;4982683;28;19933;-77
2021/08/31 10:05:54;;;;;;;;;;;;;;;17.58;100.00;99891.88;4985174;28;19917;-77
2021/08/31 10:08:20;;;;;;;;;;;;;;;17.68;100.00;99890.56;4985214;28;19917;-77
2021/08/31 10:10:47;;;;;;;;;;;;;;;17.93;100.00;99887.66;4996059;28;19932;-77
2021/08/31 10:13:13;;;;;;;;;;;;;;;17.22;100.00;99884.84;4984872;28;20381;-77
2021/08/31 10:15:39;;;;;;;;;;;;;;;17.04;100.00;99887.38;4985542;28;19918;-77
2021/08/31 10:18:05;;;;;;;;;;;;;;;17.29;100.00;99888.88;4986337;28;19917;-77
2021/08/31 10:20:30;;;;;;;;;;;;;;;16.99;100.00;99891.06;4986059;28;19966;-77
2021/08/31 10:22:56;;;;;;;;;;;;;;;17.18;100.00;99888.53;4988559;28;19918;-77
2021/08/31 10:25:22;;;;;;;;;;;;;;;17.30;100.00;99883.59;4984087;28;19917;-77
2021/08/31 10:27:48;;;;;;;;;;;;;;;18.09;100.00;99875.56;4983287;28;19921;-77
2021/08/31 10:30:16;;;;;;;;;;;;;;;18.45;100.00;99879.00;4988459;28;19918;-77
2021/08/31 10:32:42;;;;;;;;;;;;;;;18.85;100.00;99877.00;4992508;28;19918;-77
2021/08/31 10:35:08;;;;;;;;;;;;;;;18.51;100.00;99883.91;4996176;28;19924;-77
2021/08/31 10:37:43;;;;;;;;;;;;;;;18.14;100.00;99880.53;4989774;28;19997;-77
2021/08/31 10:40:08;;;;;;;;;;;;;;;18.98;100.00;99878.06;4990101;28;20455;-77
2021/08/31 10:42:34;;;;;;;;;;;;;;;18.18;100.00;99882.09;4992010;28;19926;-77
2021/08/31 10:45:00;;;;;;;;;;;;;;;18.12;100.00;99875.41;4991738;28;19926;-77
2021/08/31 10:47:37;;;;;;;;;;;;;;;19.09;100.00;99875.72;4998755;28;20373;-77
2021/08/31 10:50:08;;;;;;;;;;;;;;;18.77;100.00;99880.00;4988632;28;19960;-77
2021/08/31 10:52:41;;;;;;;;;;;;;;;20.31;100.00;99872.44;4986357;28;20044;-77
2021/08/31 10:55:07;;;;;;;;;;;;;;;20.56;100.00;99871.00;4989169;28;19918;-77
2021/08/31 10:57:35;;;;;;;;;;;;;;;20.38;100.00;99867.69;5006766;28;20385;-77
2021/08/31 11:00:04;;;;;;;;;;;;;;;20.86;100.00;99877.03;4994667;28;19928;-77
2021/08/31 11:02:47;;;;;;;;;;;;;;;20.32;100.00;99863.69;4994640;28;19914;-77
2021/08/31 11:05:25;;;;;;;;;;;;;;;19.13;100.00;99866.78;5008901;28;20378;-77
2021/08/31 11:08:11;;;;;;;;;;;;;;;19.19;100.00;99863.84;4990227;28;20042;-77
2021/08/31 11:10:37;;;;;;;;;;;;;;;20.48;100.00;99867.06;5000525;28;19932;-77
2021/08/31 11:13:13;;;;;;;;;;;;;;;21.61;100.00;99860.22;4966455;28;19917;-78
2021/08/31 11:15:38;;;;;;;;;;;;;;;20.60;100.00;99862.91;4996214;28;19917;-77
2021/08/31 11:18:07;;;;;;;;;;;;;;;22.76;100.00;99860.47;4993320;28;19921;-77
2021/08/31 11:20:33;;;;;;;;;;;;;;;23.24;100.00;99860.69;4997365;28;19917;-77
2021/08/31 11:23:06;;;;;;;;;;;;;;;23.29;100.00;99850.66;4996390;28;19925;-77
2021/08/31 11:25:38;;;;;;;;;;;;;;;22.42;100.00;99860.19;5002754;28;19918;-77
2021/08/31 11:28:05;;;;;;;;;;;;;;;22.47;100.00;99852.00;4994959;28;19917;-77
2021/08/31 11:30:46;;;;;;;;;;;;;;;21.65;100.00;99852.06;4996824;28;19917;-77
2021/08/31 11:33:14;;;;;;;;;;;;;;;23.27;100.00;99852.56;4997991;28;19966;-77
2021/08/31 11:35:40;;;;;;;;;;;;;;;22.57;100.00;99849.56;4994344;28;20357;-77
2021/08/31 11:38:05;;;;;;;;;;;;;;;24.11;100.00;99848.22;4991749;28;19922;-77
2021/08/31 11:40:30;;;;;;;;;;;;;;;23.81;100.00;99848.69;4988877;28;20040;-77
2021/08/31 11:42:56;;;;;;;;;;;;;;;21.48;100.00;99849.69;5001067;28;19926;-77
2021/08/31 11:45:40;;;;;;;;;;;;;;;20.99;100.00;99856.19;4984512;28;20942;-76
2021/08/31 11:48:06;;;;;;;;;;;;;;;21.65;100.00;99857.31;4990508;28;19922;-77
2021/08/31 11:50:32;;;;;;;;;;;;;;;24.31;100.00;99861.66;4989971;28;20012;-77
2021/08/31 11:53:11;;;;;;;;;;;;;;;24.15;100.00;99857.59;4993095;28;20037;-77
2021/08/31 11:55:37;;;;;;;;;;;;;;;22.22;100.00;99863.28;4990905;28;19933;-77
2021/08/31 11:58:02;;;;;;;;;;;;;;;21.86;100.00;99862.94;4993160;28;20062;-77
2021/08/31 12:00:41;;;;;;;;;;;;;;;21.38;100.00;99859.03;4987489;28;19922;-77
2021/08/31 12:03:25;;;;;;;;;;;;;;;21.93;100.00;99855.53;4986231;28;19921;-77
2021/08/31 12:05:51;;;;;;;;;;;;;;;22.47;100.00;99852.81;5001720;28;20065;-77
2021/08/31 12:08:17;;;;;;;;;;;;;;;21.21;100.00;99868.81;4997009;28;19922;-76
2021/08/31 12:10:42;;;;;;;;;;;;;;;22.75;100.00;99851.75;4987941;28;19933;-76
2021/08/31 12:13:07;;;;;;;;;;;;;;;24.75;100.00;99846.94;4995700;28;20024;-77
2021/08/31 12:15:33;;;;;;;;;;;;;;;22.52;100.00;99848.09;4989765;28;19979;-77
2021/08/31 12:18:02;;;;;;;;;;;;;;;24.39;100.00;99854.88;4994598;28;20385;-77
2021/08/31 12:20:27;;;;;;;;;;;;;;;25.68;100.00;99854.50;4996702;28;19933;-77
2021/08/31 12:22:56;;;;;;;;;;;;;;;23.20;100.00;99859.22;4990028;28;20305;-77
2021/08/31 12:25:21;;;;;;;;;;;;;;;22.74;100.00;99857.97;5007222;28;19949;-77
2021/08/31 12:27:47;;;;;;;;;;;;;;;23.07;100.00;99861.03;4988007;28;19964;-76
2021/08/31 12:30:14;;;;;;;;;;;;;;;23.49;100.00;99861.53;4989908;28;20404;-77